Hovedside
METAR-TAF:

METAR-TAF

Lufthavner :

Vlissingen, Nederland

breddegrad: 51-27N, lengdegrad: 3-36E, høyde over havet: 10 m

Gjeldene værobservasjon

Denne rapporten ble laget for 24 minutter siden, klokken 18:55 UTC
Vind 28 kt fra Sør
Temperatur 6°C
Luftfuktighet 87%
Trykk 985 hPa
Sikt: 9000 m
lett regn, duskregn

METAR: EHFS 121855Z AUTO 17028KT 9000 -RADZ SCT010/// BKN013/// OVC016/// 06/04 Q0985

Tid: 20:19 (19:19 UTC)


TAF: fraværende

Værobservasjoner og værvarsel for over 4000 flyplasser (METAR- og TAF-rapporter).

Tilgjengelige stasjoner er representert av de røde og gule prikkene på kartet.

Hold musepekeren over prikken for å se navnet på stasjonen.

Klikk så for å se værobservasjoner og -varsler.

For å forandre kartet kan du klikke på den grønne knappen med svart kryss for å zoome inn, på den grønne knappen med strek for å zoome ut, eller på de grønne pilene for å se tilstøtende kart.


METAR-TAF: